Time;durP1;ratioP1;P1;durP2;ratioP2;P2;SDS_P1;SDS_P2;PMS_P1;PMS_P2;Temp;Humidity;BMP_temperature;BMP_pressure;BME280_temperature;BME280_humidity;BME280_pressure;Samples;Min_cycle;Max_cycle;Signal;HPM_P1;HPM_P2
2022/12/05 00:00:59;;;;;;;24.85;12.32;;;;;;;9.62;100.00;94399.47;5079296;28;20036;-85
2022/12/05 00:03:25;;;;;;;29.35;11.35;;;;;;;9.46;100.00;94388.19;5078261;28;20353;-85
2022/12/05 00:05:50;;;;;;;23.83;12.02;;;;;;;9.50;100.00;94401.56;5078116;28;20033;-85
2022/12/05 00:08:16;;;;;;;22.20;11.23;;;;;;;9.24;100.00;94401.50;5078522;28;20040;-86
2022/12/05 00:10:42;;;;;;;21.63;10.38;;;;;;;9.26;100.00;94406.47;5078043;28;20036;-86
2022/12/05 00:13:07;;;;;;;21.50;10.75;;;;;;;9.24;100.00;94409.34;5078352;28;20341;-85
2022/12/05 00:15:37;;;;;;;19.00;10.02;;;;;;;9.63;100.00;94392.44;5077921;28;20522;-85
2022/12/05 00:18:03;;;;;;;27.92;10.60;;;;;;;9.17;100.00;94393.88;5078224;28;20032;-85
2022/12/05 00:20:29;;;;;;;25.27;10.88;;;;;;;9.17;100.00;94391.28;5077092;28;20460;-85
2022/12/05 00:22:54;;;;;;;27.85;12.13;;;;;;;9.15;100.00;94395.22;5077916;28;20077;-85
2022/12/05 00:25:19;;;;;;;29.70;12.15;;;;;;;9.16;100.00;94391.56;5078946;28;20032;-85
2022/12/05 00:27:45;;;;;;;36.00;14.18;;;;;;;8.91;100.00;94379.97;5078067;28;20041;-85
2022/12/05 00:30:10;;;;;;;29.08;12.90;;;;;;;9.29;100.00;94390.25;5078888;28;20035;-85
2022/12/05 00:32:36;;;;;;;36.33;13.98;;;;;;;8.79;100.00;94382.81;5077993;28;20123;-85
2022/12/05 00:35:01;;;;;;;31.08;13.63;;;;;;;8.95;100.00;94394.06;5077622;28;20438;-85
2022/12/05 00:37:27;;;;;;;27.83;12.50;;;;;;;9.13;100.00;94400.69;5079027;28;20093;-86
2022/12/05 00:39:52;;;;;;;69.78;15.45;;;;;;;9.34;100.00;94398.13;5077738;28;20040;-85
2022/12/05 00:42:18;;;;;;;29.85;13.18;;;;;;;9.25;100.00;94405.66;5078716;28;20029;-85
2022/12/05 00:44:43;;;;;;;31.92;12.45;;;;;;;9.26;100.00;94402.03;5078912;28;20039;-85
2022/12/05 00:47:08;;;;;;;27.95;13.00;;;;;;;9.47;100.00;94408.09;5078874;28;20047;-85
2022/12/05 00:49:34;;;;;;;23.48;10.50;;;;;;;9.65;100.00;94407.84;5078581;28;20032;-85
2022/12/05 00:51:59;;;;;;;37.13;11.88;;;;;;;9.63;100.00;94408.13;5078345;28;20064;-85
2022/12/05 00:54:25;;;;;;;592.08;31.70;;;;;;;9.02;100.00;94393.84;5078749;28;20040;-84
2022/12/05 00:56:54;;;;;;;551.70;31.40;;;;;;;8.70;100.00;94394.75;5078677;28;20064;-85
2022/12/05 00:59:20;;;;;;;18.95;8.48;;;;;;;9.05;100.00;94385.50;5078429;28;20430;-85
2022/12/05 01:01:47;;;;;;;434.30;23.88;;;;;;;9.01;100.00;94392.28;5077333;28;20040;-85
2022/12/05 01:04:18;;;;;;;54.70;13.73;;;;;;;8.82;100.00;94397.97;5077367;28;20406;-85
2022/12/05 01:06:44;;;;;;;19.92;9.27;;;;;;;9.28;100.00;94410.41;5077245;28;20384;-85
2022/12/05 01:09:15;;;;;;;31.80;12.23;;;;;;;9.12;100.00;94411.41;5077032;28;20028;-85
2022/12/05 01:11:41;;;;;;;24.42;11.20;;;;;;;9.23;100.00;94414.84;5078295;28;20028;-86
2022/12/05 01:14:08;;;;;;;28.23;12.02;;;;;;;9.52;100.00;94419.63;5076915;28;20028;-86
2022/12/05 01:16:35;;;;;;;27.25;11.25;;;;;;;9.54;100.00;94426.16;5077079;28;20036;-85
2022/12/05 01:19:05;;;;;;;22.65;10.73;;;;;;;9.45;100.00;94428.47;5076845;28;20028;-85
2022/12/05 01:21:31;;;;;;;26.95;11.38;;;;;;;9.07;100.00;94440.91;5078109;28;20036;-86
2022/12/05 01:23:56;;;;;;;32.50;13.52;;;;;;;8.62;100.00;94440.44;5076733;28;20035;-86
2022/12/05 01:26:22;;;;;;;30.80;11.52;;;;;;;8.88;100.00;94448.41;5076835;28;20032;-86
2022/12/05 01:28:48;;;;;;;27.63;11.55;;;;;;;8.95;100.00;94433.28;5076546;28;20060;-85
2022/12/05 01:31:26;;;;;;;21.52;9.82;;;;;;;9.24;100.00;94421.63;5076174;28;20485;-86
2022/12/05 01:33:53;;;;;;;56.22;10.85;;;;;;;9.31;100.00;94422.97;5076295;28;20037;-86
2022/12/05 01:36:20;;;;;;;38.45;10.95;;;;;;;9.38;100.00;94427.94;5076450;28;20025;-85
2022/12/05 01:38:45;;;;;;;21.52;9.65;;;;;;;9.16;100.00;94436.75;5077555;28;20035;-86
2022/12/05 01:41:15;;;;;;;20.95;8.68;;;;;;;9.09;100.00;94430.19;5076258;28;20036;-86
2022/12/05 01:44:03;;;;;;;17.63;7.50;;;;;;;8.87;100.00;94426.72;5076256;28;20028;-86
2022/12/05 01:46:32;;;;;;;16.02;6.57;;;;;;;9.05;100.00;94427.34;5077368;28;20025;-86
2022/12/05 01:49:10;;;;;;;13.77;6.15;;;;;;;8.98;100.00;94440.63;5076221;28;20028;-86
2022/12/05 01:51:38;;;;;;;10.57;5.22;;;;;;;8.96;100.00;94434.84;5076012;28;20453;-85
2022/12/05 01:54:05;;;;;;;9.93;4.60;;;;;;;9.00;100.00;94430.69;5076055;28;20029;-86
2022/12/05 01:56:31;;;;;;;10.07;4.28;;;;;;;8.81;100.00;94432.16;5076359;28;20033;-85
2022/12/05 01:58:59;;;;;;;9.57;4.32;;;;;;;8.82;100.00;94428.50;5076053;28;20044;-86
2022/12/05 02:01:24;;;;;;;8.77;4.13;;;;;;;8.88;100.00;94430.91;5059386;28;20339;-86
2022/12/05 02:03:52;;;;;;;8.82;4.22;;;;;;;8.74;100.00;94427.97;5075958;28;20028;-86
2022/12/05 02:06:17;;;;;;;9.05;3.90;;;;;;;8.94;100.00;94430.94;5076137;28;20039;-86
2022/12/05 02:08:43;;;;;;;8.52;4.82;;;;;;;8.94;100.00;94421.25;5075760;28;20032;-86
2022/12/05 02:11:09;;;;;;;9.65;5.13;;;;;;;8.97;100.00;94422.59;5075716;28;20036;-86
2022/12/05 02:13:59;;;;;;;10.00;4.75;;;;;;;8.98;100.00;94416.31;5076097;28;20121;-86
2022/12/05 02:16:48;;;;;;;9.15;4.60;;;;;;;9.29;100.00;94403.34;5076018;28;20440;-86
2022/12/05 02:22:43;;;;;;;9.52;5.63;;;;;;;9.13;100.00;94400.69;5076909;28;20040;-86
2022/12/05 02:25:14;;;;;;;12.73;5.60;;;;;;;8.90;100.00;94409.75;5077061;28;20035;-86
2022/12/05 02:28:03;;;;;;;8.85;5.28;;;;;;;9.11;100.00;94410.59;5076864;28;20035;-87
2022/12/05 02:30:38;;;;;;;10.57;6.13;;;;;;;9.03;100.00;94411.91;5075761;28;20130;-86
2022/12/05 02:33:28;;;;;;;12.48;6.25;;;;;;;8.88;100.00;94402.16;5077018;28;20024;-86
2022/12/05 02:36:00;;;;;;;11.02;5.95;;;;;;;9.25;100.00;94397.06;5075805;28;20115;-86
2022/12/05 02:38:31;;;;;;;11.63;6.10;;;;;;;9.33;100.00;94401.81;5076719;28;20037;-87
2022/12/05 02:41:09;;;;;;;10.82;6.00;;;;;;;9.31;100.00;94414.31;5076799;28;20123;-86
2022/12/05 02:43:43;;;;;;;11.07;6.07;;;;;;;9.27;100.00;94413.28;5075103;28;20032;-86
2022/12/05 02:46:12;;;;;;;9.45;5.38;;;;;;;9.32;100.00;94410.66;5075680;28;20031;-86
2022/12/05 02:48:38;;;;;;;8.60;5.22;;;;;;;9.36;100.00;94400.47;5059180;28;20130;-86
2022/12/05 02:51:05;;;;;;;11.57;5.75;;;;;;;9.19;100.00;94397.06;5075461;28;20036;-86
2022/12/05 02:53:31;;;;;;;10.43;5.50;;;;;;;8.67;100.00;94393.44;5075340;28;20035;-85
2022/12/05 02:55:57;;;;;;;9.55;5.78;;;;;;;8.87;100.00;94394.59;5067907;28;20028;-86
2022/12/05 02:59:09;;;;;;;10.10;6.03;;;;;;;9.25;100.00;94404.91;5055683;28;20036;-86
2022/12/05 03:01:34;;;;;;;13.20;7.43;;;;;;;8.83;100.00;94402.13;5074976;28;20082;-86
2022/12/05 03:04:11;;;;;;;410.35;19.45;;;;;;;8.58;100.00;94387.91;5070743;28;20431;-86
2022/12/05 03:06:45;;;;;;;53.25;7.82;;;;;;;8.83;100.00;94396.91;5058657;28;20131;-86
2022/12/05 03:09:49;;;;;;;7.53;4.90;;;;;;;9.05;100.00;94398.59;5055414;28;20345;-87
2022/12/05 03:12:22;;;;;;;;;;;;;;;8.91;100.00;94385.19;5057001;28;20021;-86
2022/12/05 03:14:57;;;;;;;307.73;20.65;;;;;;;8.91;100.00;94390.41;5055083;28;19915;-86
2022/12/05 03:17:29;;;;;;;250.15;19.50;;;;;;;8.98;100.00;94387.56;5055096;28;20419;-86
2022/12/05 03:20:08;;;;;;;10.30;3.25;;;;;;;9.26;100.00;94388.16;5055216;28;20040;-86
2022/12/05 03:22:42;;;;;;;258.08;13.38;;;;;;;9.10;100.00;94393.34;5055647;28;20031;-86
2022/12/05 03:25:07;;;;;;;;;;;;;;;8.65;100.00;94405.97;5074186;28;20040;-86
2022/12/05 03:27:45;;;;;;;103.63;5.82;;;;;;;9.02;100.00;94399.88;5075013;28;19916;-85
2022/12/05 03:30:14;;;;;;;211.32;13.20;;;;;;;8.91;100.00;94404.28;5076075;28;20036;-85
2022/12/05 03:33:27;;;;;;;76.45;7.20;;;;;;;9.22;100.00;94400.19;5074996;28;20426;-85
2022/12/05 03:36:04;;;;;;;313.23;18.40;;;;;;;8.83;100.00;94402.13;5037461;28;20122;-85
2022/12/05 03:38:33;;;;;;;157.52;9.05;;;;;;;8.97;100.00;94412.13;5053982;28;20378;-86
2022/12/05 03:41:22;;;;;;;8.32;5.30;;;;;;;9.11;100.00;94418.44;5059654;28;20040;-86
2022/12/05 03:44:04;;;;;;;278.13;15.25;;;;;;;9.10;100.00;94429.94;5075198;28;20429;-85
2022/12/05 03:46:33;;;;;;;387.80;18.35;;;;;;;8.90;100.00;94420.19;5074823;28;20039;-86
2022/12/05 03:49:44;;;;;;;33.33;7.68;;;;;;;9.20;100.00;94423.97;5076368;28;20039;-85
2022/12/05 03:52:13;;;;;;;236.23;16.38;;;;;;;9.01;100.00;94415.78;5075786;28;20037;-86
2022/12/05 03:55:00;;;;;;;121.28;12.30;;;;;;;9.04;100.00;94416.06;5075991;28;20029;-86
2022/12/05 03:57:33;;;;;;;176.40;15.60;;;;;;;8.54;100.00;94420.81;5078287;28;20021;-86
2022/12/05 04:00:17;;;;;;;342.38;23.40;;;;;;;8.35;100.00;94415.16;5078504;28;20039;-85
2022/12/05 04:02:51;;;;;;;339.08;21.83;;;;;;;8.49;100.00;94408.47;5079651;28;20457;-86
2022/12/05 04:05:23;;;;;;;91.35;10.68;;;;;;;8.64;100.00;94401.78;5052074;28;20036;-86
2022/12/05 04:07:57;;;;;;;59.97;10.40;;;;;;;8.65;100.00;94426.88;5068156;28;20115;-86
2022/12/05 04:10:31;;;;;;;17.55;9.25;;;;;;;8.54;100.00;94426.03;5073180;28;20039;-86
2022/12/05 04:13:16;;;;;;;291.23;18.45;;;;;;;8.50;100.00;94422.34;5078090;28;20024;-86
2022/12/05 04:18:36;;;;;;;13.25;7.22;;;;;;;8.74;100.00;94414.09;5078214;28;20469;-86
2022/12/05 04:25:31;;;;;;;15.30;7.22;;;;;;;8.42;100.00;94420.19;5077989;28;20040;-86
2022/12/05 04:26:33;;;;;;;14.18;7.57;;;;;;;8.17;100.00;94416.34;5077342;28;20442;-86
2022/12/05 04:29:11;;;;;;;15.68;8.05;;;;;;;8.65;100.00;94413.03;5077435;28;20032;-85
2022/12/05 04:31:41;;;;;;;16.63;7.93;;;;;;;8.44;100.00;94410.25;5077641;28;20036;-86
2022/12/05 04:34:09;;;;;;;20.33;8.85;;;;;;;8.32;100.00;94413.06;5077287;28;20024;-85
2022/12/05 04:37:01;;;;;;;14.35;7.70;;;;;;;8.61;100.00;94407.53;5077256;28;20097;-86
2022/12/05 04:39:41;;;;;;;15.23;8.25;;;;;;;8.54;100.00;94409.59;5070895;28;20514;-85
2022/12/05 04:42:10;;;;;;;16.70;7.75;;;;;;;8.17;100.00;94403.28;5078659;28;20109;-86
2022/12/05 04:44:47;;;;;;;585.17;28.15;;;;;;;8.18;100.00;94402.28;5077161;28;20327;-85
2022/12/05 04:47:16;;;;;;;223.75;16.23;;;;;;;7.94;100.00;94405.25;5076887;28;20028;-86
2022/12/05 04:49:43;;;;;;;22.60;9.02;;;;;;;8.02;100.00;94407.38;5078430;28;20051;-85
2022/12/05 04:52:10;;;;;;;15.60;8.48;;;;;;;8.38;100.00;94412.06;5078419;28;20056;-85
2022/12/05 04:54:45;;;;;;;17.95;9.48;;;;;;;8.48;100.00;94403.50;5077289;28;20115;-85
2022/12/05 04:57:20;;;;;;;21.95;9.07;;;;;;;8.27;100.00;94402.59;5064839;28;20045;-85
2022/12/05 04:59:46;;;;;;;16.42;9.00;;;;;;;8.51;100.00;94402.25;5057096;28;20115;-85
2022/12/05 05:02:14;;;;;;;16.98;8.30;;;;;;;8.65;100.00;94405.97;5058316;28;20059;-86
2022/12/05 05:04:44;;;;;;;14.52;7.78;;;;;;;8.60;100.00;94405.94;5058301;28;20025;-85
2022/12/05 05:07:11;;;;;;;17.58;8.65;;;;;;;8.36;100.00;94416.75;5057035;28;20029;-85
2022/12/05 05:09:36;;;;;;;55.47;10.88;;;;;;;8.13;100.00;94415.28;5057050;28;20098;-85
2022/12/05 05:12:03;;;;;;;22.95;8.70;;;;;;;8.26;100.00;94419.31;5056829;28;20037;-86
2022/12/05 05:14:28;;;;;;;17.60;8.60;;;;;;;8.52;100.00;94415.06;5057059;28;20070;-85
2022/12/05 05:16:54;;;;;;;16.75;8.23;;;;;;;8.37;100.00;94412.31;5058364;28;20040;-85
2022/12/05 05:19:20;;;;;;;16.58;8.45;;;;;;;8.49;100.00;94415.53;5056771;28;20029;-86
2022/12/05 05:21:45;;;;;;;18.45;8.65;;;;;;;8.77;100.00;94409.16;5056706;28;20031;-85
2022/12/05 05:24:11;;;;;;;17.98;9.07;;;;;;;8.77;100.00;94414.38;5057945;28;20430;-86
2022/12/05 05:26:41;;;;;;;15.45;8.48;;;;;;;8.70;100.00;94410.44;5056478;28;20492;-86
2022/12/05 05:29:08;;;;;;;13.60;7.80;;;;;;;8.83;100.00;94423.03;5056649;28;20446;-86
2022/12/05 05:31:35;;;;;;;14.63;7.22;;;;;;;8.87;100.00;94418.09;5056836;28;20327;-86
2022/12/05 05:34:00;;;;;;;18.67;7.20;;;;;;;8.73;100.00;94417.75;5056535;28;20033;-86
2022/12/05 05:36:26;;;;;;;12.95;7.13;;;;;;;8.74;100.00;94433.19;5056469;28;20029;-86
2022/12/05 05:38:57;;;;;;;17.30;7.50;;;;;;;8.76;100.00;94436.34;5057607;28;20392;-86
2022/12/05 05:41:28;;;;;;;14.77;8.38;;;;;;;8.74;100.00;94448.06;5056423;28;20029;-86
2022/12/05 05:43:54;;;;;;;15.40;7.50;;;;;;;8.42;100.00;94444.47;5061346;28;20413;-86
2022/12/05 05:46:22;;;;;;;15.27;7.78;;;;;;;8.58;100.00;94444.59;5056009;28;20127;-85
2022/12/05 05:48:48;;;;;;;12.88;6.88;;;;;;;8.53;100.00;94447.97;5057615;28;20039;-86
2022/12/05 05:51:14;;;;;;;11.80;6.57;;;;;;;8.48;100.00;94448.69;5055956;28;20029;-85
2022/12/05 05:53:40;;;;;;;8.48;4.80;;;;;;;8.74;100.00;94443.63;5057642;28;20439;-86
2022/12/05 05:56:14;;;;;;;8.48;4.60;;;;;;;8.70;100.00;94431.34;5056089;28;20025;-85
2022/12/05 05:59:08;;;;;;;9.35;4.72;;;;;;;8.66;100.00;94451.94;5056068;28;20392;-85
2022/12/05 06:01:33;;;;;;;9.27;4.45;;;;;;;8.25;100.00;94446.41;5057740;28;20039;-86
2022/12/05 06:03:58;;;;;;;10.00;4.72;;;;;;;8.37;100.00;94448.88;5077456;28;20040;-85
2022/12/05 06:06:24;;;;;;;7.50;4.15;;;;;;;8.53;100.00;94447.97;5077019;28;20028;-85
2022/12/05 06:08:50;;;;;;;6.05;3.30;;;;;;;8.52;100.00;94456.84;5075876;28;20039;-85
2022/12/05 06:11:19;;;;;;;11.07;6.03;;;;;;;8.38;100.00;94459.03;5075873;28;20111;-85
2022/12/05 06:13:45;;;;;;;7.18;4.22;;;;;;;8.38;100.00;94460.88;5077004;28;20063;-85
2022/12/05 06:16:12;;;;;;;10.05;4.72;;;;;;;8.27;100.00;94445.13;5075824;28;20059;-85
2022/12/05 06:18:37;;;;;;;7.32;4.25;;;;;;;8.33;100.00;94451.19;5075197;28;20127;-86
2022/12/05 06:21:07;;;;;;;5.30;2.85;;;;;;;8.46;100.00;94440.31;5075926;28;20067;-85
2022/12/05 06:23:33;;;;;;;4.93;2.92;;;;;;;8.43;100.00;94455.69;5076895;28;20029;-84
2022/12/05 06:25:59;;;;;;;5.03;3.03;;;;;;;8.29;100.00;94452.72;5077025;28;20040;-85
2022/12/05 06:28:24;;;;;;;5.80;2.60;;;;;;;8.25;100.00;94455.06;5077118;28;20062;-86
2022/12/05 06:30:50;;;;;;;6.78;2.55;;;;;;;8.37;100.00;94454.88;5077005;28;20040;-86
2022/12/05 06:33:16;;;;;;;4.88;2.13;;;;;;;8.46;100.00;94461.19;5075498;28;20033;-87
2022/12/05 06:35:42;;;;;;;3.38;1.88;;;;;;;8.03;100.00;94462.97;5077254;28;20040;-86
2022/12/05 06:38:08;;;;;;;6.68;3.25;;;;;;;7.93;100.00;94471.50;5076714;28;20028;-86
2022/12/05 06:40:34;;;;;;;7.40;3.85;;;;;;;8.27;100.00;94460.03;5076863;28;20043;-87
2022/12/05 06:42:59;;;;;;;4.43;1.70;;;;;;;8.29;100.00;94461.34;5076891;28;20089;-88
2022/12/05 06:45:25;;;;;;;12.02;2.72;;;;;;;8.27;100.00;94465.25;5076791;28;20346;-87
2022/12/05 06:47:51;;;;;;;3.40;2.25;;;;;;;8.46;100.00;94455.97;5075692;28;20028;-88
2022/12/05 06:50:17;;;;;;;8.27;1.88;;;;;;;8.40;100.00;94459.59;5076680;28;20036;-88
2022/12/05 06:52:42;;;;;;;3.85;1.67;;;;;;;8.27;100.00;94462.63;5076807;28;20035;-89
2022/12/05 06:55:08;;;;;;;3.75;1.67;;;;;;;8.39;100.00;94472.91;5076727;28;20032;-90
2022/12/05 06:57:34;;;;;;;3.47;1.88;;;;;;;8.44;100.00;94465.88;5076534;28;20028;-88
2022/12/05 07:02:43;;;;;;;4.68;2.03;;;;;;;8.44;100.00;94459.88;5075702;28;20078;-88
2022/12/05 07:05:09;;;;;;;2.13;1.48;;;;;;;8.88;100.00;94456.25;5076755;28;20032;-88
2022/12/05 07:07:35;;;;;;;2.03;1.00;;;;;;;9.11;100.00;94462.88;5075168;28;20369;-89
2022/12/05 07:10:01;;;;;;;3.53;1.40;;;;;;;9.12;100.00;94468.91;5076845;28;20047;-88
2022/12/05 07:12:26;;;;;;;1.92;1.35;;;;;;;9.08;100.00;94467.81;5075430;28;20028;-89
2022/12/05 07:14:52;;;;;;;216.93;10.48;;;;;;;8.84;100.00;94486.53;5075442;28;20029;-89
2022/12/05 07:17:18;;;;;;;1.48;1.15;;;;;;;9.08;100.00;94468.63;5076646;28;20036;-88
2022/12/05 07:19:45;;;;;;;2.17;1.27;;;;;;;9.27;100.00;94470.78;5075509;28;20442;-88
2022/12/05 07:22:10;;;;;;;1.67;1.05;;;;;;;8.93;100.00;94479.00;5075638;28;20032;-88
2022/12/05 07:24:36;;;;;;;1.90;1.30;;;;;;;9.29;100.00;94477.34;5076593;28;20029;-89
2022/12/05 07:27:01;;;;;;;6.07;1.38;;;;;;;9.24;100.00;94487.00;5076394;28;20198;-90
2022/12/05 07:29:27;;;;;;;1.42;1.08;;;;;;;9.41;100.00;94495.41;5074969;28;20040;-90
2022/12/05 07:31:53;;;;;;;1.73;1.05;;;;;;;9.51;100.00;94496.50;5078804;28;20036;-89
2022/12/05 07:34:18;;;;;;;9.45;2.10;;;;;;;9.59;100.00;94499.41;5079097;28;20024;-89
2022/12/05 07:36:43;;;;;;;5.43;2.30;;;;;;;9.68;100.00;94502.31;5078999;28;20031;-88
2022/12/05 07:39:09;;;;;;;3.00;2.15;;;;;;;9.97;100.00;94488.75;5062857;28;20090;-89
2022/12/05 07:41:34;;;;;;;3.60;2.10;;;;;;;9.96;100.00;94484.56;5078844;28;20448;-89
2022/12/05 07:44:00;;;;;;;5.85;2.17;;;;;;;9.68;100.00;94486.59;5062492;28;20074;-88
2022/12/05 07:46:27;;;;;;;5.85;2.70;;;;;;;9.97;100.00;94488.75;5062641;28;20056;-89
2022/12/05 07:48:53;;;;;;;6.15;1.98;;;;;;;10.02;100.00;94486.13;5079085;28;20033;-89
2022/12/05 07:51:18;;;;;;;4.20;2.00;;;;;;;10.25;100.00;94486.69;5078573;28;20033;-89
2022/12/05 07:53:45;;;;;;;2.72;1.80;;;;;;;10.27;100.00;94497.69;5078790;28;20035;-89
2022/12/05 07:56:15;;;;;;;3.05;1.70;;;;;;;10.54;100.00;94490.63;5078980;28;20029;-89
2022/12/05 07:58:42;;;;;;;6.00;3.10;;;;;;;10.63;100.00;94480.41;5062460;28;20358;-89
2022/12/05 08:01:10;;;;;;;3.78;2.10;;;;;;;10.83;100.00;94482.19;5078522;28;20035;-89
2022/12/05 08:03:36;;;;;;;4.63;2.25;;;;;;;10.67;100.00;94489.31;5062098;28;20029;-89
2022/12/05 08:06:07;;;;;;;3.05;1.75;;;;;;;10.91;100.00;94481.66;5061724;28;20036;-89
2022/12/05 08:08:33;;;;;;;1.50;1.10;;;;;;;11.03;100.00;94484.78;5078477;28;20035;-89
2022/12/05 08:11:07;;;;;;;4.10;1.10;;;;;;;11.26;100.00;94480.00;5078633;28;20036;-89
2022/12/05 08:13:33;;;;;;;2.80;1.60;;;;;;;11.17;100.00;94492.84;5078371;28;20089;-90
2022/12/05 08:16:26;;;;;;;4.10;1.88;;;;;;;11.09;100.00;94493.41;5078371;28;20119;-88
2022/12/05 08:22:13;;;;;;;2.63;1.70;;;;;;;11.16;100.00;94493.91;5079201;28;20046;-89
2022/12/05 08:28:00;;;;;;;4.18;2.38;;;;;;;10.83;100.00;94505.78;5079048;28;20494;-90
2022/12/05 08:30:26;;;;;;;3.15;1.70;;;;;;;11.25;100.00;94501.25;5077672;28;20024;-89
2022/12/05 08:32:51;;;;;;;3.80;2.05;;;;;;;11.30;100.00;94498.59;5078371;28;20386;-89
2022/12/05 08:35:17;;;;;;;3.25;1.70;;;;;;;11.54;100.00;94503.22;5078550;28;20020;-89
2022/12/05 08:37:42;;;;;;;2.88;1.40;;;;;;;11.66;100.00;94505.53;5061499;28;20024;-89
2022/12/05 08:40:08;;;;;;;4.45;1.85;;;;;;;11.46;100.00;94510.59;5061232;28;20025;-88
2022/12/05 08:42:33;;;;;;;3.42;1.48;;;;;;;11.22;100.00;94513.03;5077503;28;20414;-89
2022/12/05 08:44:59;;;;;;;6.18;2.25;;;;;;;11.57;100.00;94500.84;5078131;28;20035;-89
2022/12/05 08:47:24;;;;;;;1.15;0.70;;;;;;;11.65;100.00;94507.38;5078920;28;20346;-89
2022/12/05 08:49:50;;;;;;;4.38;1.30;;;;;;;11.59;100.00;94504.00;5077777;28;20043;-89
2022/12/05 08:52:15;;;;;;;2.42;1.23;;;;;;;11.61;100.00;94498.44;5077860;28;20123;-89
2022/12/05 08:54:41;;;;;;;1.52;0.90;;;;;;;11.79;100.00;94506.78;5077697;28;20441;-89
2022/12/05 08:57:06;;;;;;;2.75;1.38;;;;;;;11.73;100.00;94501.53;5077555;28;20017;-89
2022/12/05 08:59:31;;;;;;;2.22;1.10;;;;;;;11.97;100.00;94514.03;5077784;28;20026;-89
2022/12/05 09:01:57;;;;;;;2.03;1.38;;;;;;;12.16;100.00;94506.31;5078871;28;20078;-89
2022/12/05 09:04:22;;;;;;;2.33;1.55;;;;;;;12.31;100.00;94512.53;5078908;28;20331;-89
2022/12/05 09:06:48;;;;;;;3.22;1.80;;;;;;;12.37;100.00;94505.41;5078766;28;20373;-89
2022/12/05 09:09:13;;;;;;;2.53;1.30;;;;;;;12.67;100.00;94509.59;5060667;28;20083;-89
2022/12/05 09:11:44;;;;;;;1.17;0.63;;;;;;;12.37;100.00;94497.50;5078702;28;20025;-88
2022/12/05 09:14:11;;;;;;;2.03;1.00;;;;;;;12.78;100.00;94494.53;5077278;28;20028;-88
2022/12/05 09:16:36;;;;;;;1.88;0.93;;;;;;;12.79;100.00;94496.09;5077222;28;20060;-89
2022/12/05 09:19:02;;;;;;;5.40;1.20;;;;;;;12.85;100.00;94508.13;5060729;28;20397;-89
2022/12/05 09:21:29;;;;;;;1.10;0.90;;;;;;;12.90;100.00;94496.78;5077015;28;20097;-89
2022/12/05 09:23:55;;;;;;;2.53;0.60;;;;;;;12.79;100.00;94493.47;5078433;28;20040;-89
2022/12/05 09:26:23;;;;;;;1.90;0.60;;;;;;;13.09;100.00;94499.47;5076852;28;20430;-89
2022/12/05 09:29:39;;;;;;;3.15;1.23;;;;;;;13.16;100.00;94496.53;5077015;28;20032;-89
2022/12/05 09:32:04;;;;;;;0.98;0.70;;;;;;;13.04;100.00;94494.25;5076592;28;20024;-89
2022/12/05 09:34:30;;;;;;;2.00;0.60;;;;;;;13.16;100.00;94501.78;5076820;28;20089;-89
2022/12/05 09:36:56;;;;;;;1.48;0.68;;;;;;;13.48;100.00;94504.84;5078290;28;20422;-90
2022/12/05 09:39:22;;;;;;;2.88;0.60;;;;;;;13.59;100.00;94505.53;5077934;28;20036;-89
2022/12/05 09:42:08;;;;;;;2.90;0.90;;;;;;;13.88;100.00;94502.78;5076515;28;20028;-89
2022/12/05 09:45:13;;;;;;;1.30;0.70;;;;;;;13.67;100.00;94491.72;5077004;28;20384;-88
2022/12/05 09:47:50;;;;;;;2.50;0.40;;;;;;;13.32;100.00;94480.56;5077432;28;20082;-89
2022/12/05 09:50:27;;;;;;;0.73;0.52;;;;;;;13.90;100.00;94482.19;5077686;28;20051;-88
2022/12/05 09:53:01;;;;;;;3.00;0.60;;;;;;;13.64;100.00;94476.50;5075980;28;20036;-90
2022/12/05 09:55:52;;;;;;;3.35;0.50;;;;;;;13.78;100.00;94476.59;5059757;28;20350;-89
2022/12/05 09:58:23;;;;;;;1.58;0.50;;;;;;;14.00;100.00;94484.69;5071349;28;20473;-90
2022/12/05 10:00:51;;;;;;;1.60;0.50;;;;;;;14.25;100.00;94474.84;5077166;28;20094;-89
2022/12/05 10:03:28;;;;;;;1.40;0.70;;;;;;;14.32;100.00;94474.47;5076442;28;20336;-89
2022/12/05 10:06:12;;;;;;;1.08;0.75;;;;;;;13.95;100.00;94465.53;5077430;28;20036;-89
2022/12/05 10:08:56;;;;;;;1.42;0.63;;;;;;;14.51;100.00;94474.44;5076308;28;20078;-89
2022/12/05 10:11:27;;;;;;;0.88;0.65;;;;;;;14.21;100.00;94478.34;5077307;28;20032;-89
2022/12/05 10:14:15;;;;;;;1.52;0.85;;;;;;;14.42;100.00;94468.25;5075811;28;20028;-89
2022/12/05 10:16:46;;;;;;;1.20;0.90;;;;;;;14.42;100.00;94474.31;5077026;28;20157;-89
2022/12/05 10:19:17;;;;;;;5.22;0.98;;;;;;;14.31;100.00;94470.28;5076406;28;20039;-89
2022/12/05 10:22:00;;;;;;;1.50;0.80;;;;;;;14.50;100.00;94472.09;5076278;28;20037;-89
2022/12/05 10:24:34;;;;;;;2.90;0.75;;;;;;;14.13;100.00;94477.16;5077251;28;20174;-90
2022/12/05 10:27:01;;;;;;;;;;;;;;;14.41;100.00;94462.19;5076300;28;20025;-90
2022/12/05 10:29:46;;;;;;;2.03;0.60;;;;;;;15.01;100.00;94457.25;5058861;28;19954;-89
2022/12/05 10:32:35;;;;;;;1.17;0.50;;;;;;;14.33;100.00;94459.44;5077166;28;20032;-90
2022/12/05 10:35:14;;;;;;;1.58;0.68;;;;;;;14.80;100.00;94441.81;5076827;28;20024;-88
2022/12/05 10:37:43;;;;;;;3.35;0.55;;;;;;;15.26;100.00;94436.72;5076722;28;20081;-89
2022/12/05 10:40:11;;;;;;;2.13;0.90;;;;;;;15.08;100.00;94433.91;5068940;28;20028;-88
2022/12/05 10:42:37;;;;;;;1.02;0.60;;;;;;;15.01;100.00;94433.50;5070938;28;20055;-89
2022/12/05 10:45:05;;;;;;;0.75;0.63;;;;;;;15.20;100.00;94432.59;5077235;28;20036;-88
2022/12/05 10:47:32;;;;;;;1.75;0.85;;;;;;;15.33;100.00;94441.59;5075910;28;20036;-87
2022/12/05 10:50:03;;;;;;;1.60;0.70;;;;;;;15.44;99.51;94435.03;5075623;28;20028;-87
2022/12/05 10:52:29;;;;;;;0.93;0.55;;;;;;;15.96;100.00;94432.09;5076710;28;20035;-87
2022/12/05 10:55:02;;;;;;;0.85;0.70;;;;;;;16.18;100.00;94435.03;5075669;28;20060;-87
2022/12/05 10:57:31;;;;;;;1.58;0.52;;;;;;;16.07;82.61;94418.66;5075654;28;20047;-86
2022/12/05 10:59:57;;;;;;;1.02;0.60;;;;;;;16.24;90.79;94415.31;5076723;28;20041;-87
2022/12/05 11:02:28;;;;;;;2.60;0.70;;;;;;;16.58;83.65;94421.13;5075513;28;20353;-87
2022/12/05 11:04:54;;;;;;;1.00;0.73;;;;;;;16.84;96.87;94412.53;5077673;28;20101;-87
2022/12/05 11:07:28;;;;;;;0.50;0.40;;;;;;;16.12;83.49;94413.25;5065250;28;20040;-88
2022/12/05 11:09:54;;;;;;;1.77;0.68;;;;;;;15.67;92.21;94412.09;5080723;28;20336;-87
2022/12/05 11:12:28;;;;;;;1.23;0.50;;;;;;;15.63;80.92;94413.00;5080809;28;20024;-87
2022/12/05 11:14:58;;;;;;;3.78;0.70;;;;;;;16.54;87.25;94407.72;5079378;28;20042;-87
2022/12/05 11:17:29;;;;;;;0.70;0.40;;;;;;;15.87;84.44;94410.06;5079369;28;20352;-87
2022/12/05 11:19:55;;;;;;;1.73;0.88;;;;;;;15.18;92.78;94421.56;5078988;28;20036;-87
2022/12/05 11:22:30;;;;;;;2.30;0.82;;;;;;;16.46;76.15;94408.47;5079701;28;20044;-87
2022/12/05 11:24:55;;;;;;;1.15;0.68;;;;;;;15.83;81.05;94401.19;5078991;28;20025;-87
2022/12/05 11:27:27;;;;;;;1.80;0.60;;;;;;;16.00;83.29;94410.34;5079420;28;20073;-87
2022/12/05 11:30:21;;;;;;;1.60;0.70;;;;;;;15.31;90.94;94404.16;5079092;28;20028;-87
2022/12/05 11:32:48;;;;;;;;;;;;;;;15.20;94.54;94400.94;5080445;28;20036;-88
2022/12/05 11:35:26;;;;;;;1.35;0.52;;;;;;;14.39;99.45;94411.63;5079163;28;19908;-87
2022/12/05 11:37:56;;;;;;;2.35;0.60;;;;;;;14.35;100.00;94408.00;5079031;28;20032;-87
2022/12/05 11:40:25;;;;;;;3.05;0.70;;;;;;;14.31;100.00;94401.75;5078943;28;20032;-86
2022/12/05 11:43:13;;;;;;;1.95;0.63;;;;;;;14.25;100.00;94401.06;5080169;28;20251;-87
2022/12/05 11:45:53;;;;;;;1.00;0.55;;;;;;;14.93;99.04;94405.94;5079827;28;20032;-87
2022/12/05 11:48:28;;;;;;;0.98;0.60;;;;;;;14.62;100.00;94403.88;5080116;28;20044;-86
2022/12/05 11:51:13;;;;;;;3.75;0.43;;;;;;;14.40;100.00;94409.78;5078314;28;20095;-86
2022/12/05 11:54:05;;;;;;;0.98;0.52;;;;;;;13.56;100.00;94401.59;5078527;28;20060;-87
2022/12/05 11:56:37;;;;;;;4.65;0.73;;;;;;;13.93;100.00;94402.63;5079930;28;20372;-87
2022/12/05 11:59:02;;;;;;;2.17;0.50;;;;;;;13.84;100.00;94405.13;5078627;28;20097;-87
2022/12/05 12:01:46;;;;;;;1.83;0.70;;;;;;;13.93;100.00;94399.22;5079739;28;20028;-86